Time;durP1;ratioP1;P1;durP2;ratioP2;P2;SDS_P1;SDS_P2;PMS_P1;PMS_P2;Temp;Humidity;BMP_temperature;BMP_pressure;BME280_temperature;BME280_humidity;BME280_pressure;Samples;Min_cycle;Max_cycle;Signal;HPM_P1;HPM_P2
2022/12/10 00:01:49;;;;;;;2.42;2.10;;;1.90;99.90;;;;;;5030686;28;20048;-62
2022/12/10 00:04:15;;;;;;;2.42;2.25;;;1.90;99.90;;;;;;5032747;28;20045;-62
2022/12/10 00:06:42;;;;;;;0.73;0.73;;;1.90;99.90;;;;;;5032719;28;20045;-62
2022/12/10 00:09:11;;;;;;;5.40;2.05;;;1.90;99.90;;;;;;5032343;28;20038;-62
2022/12/10 00:11:38;;;;;;;0.85;0.85;;;1.90;99.90;;;;;;5030256;28;20052;-62
2022/12/10 00:14:04;;;;;;;3.67;2.67;;;1.90;99.90;;;;;;5032308;28;20069;-62
2022/12/10 00:16:30;;;;;;;0.65;0.65;;;1.90;99.90;;;;;;5031933;28;20530;-62
2022/12/10 00:18:56;;;;;;;23.70;2.50;;;1.90;99.90;;;;;;5030561;28;20408;-62
2022/12/10 00:21:28;;;;;;;0.70;0.70;;;1.90;99.90;;;;;;5031603;28;20052;-62
2022/12/10 00:23:55;;;;;;;1.25;1.25;;;1.90;99.90;;;;;;5031781;28;20050;-62
2022/12/10 00:26:30;;;;;;;0.90;0.90;;;1.90;99.90;;;;;;5032728;28;20053;-62
2022/12/10 00:28:57;;;;;;;1.58;1.48;;;2.00;99.90;;;;;;5031046;28;20056;-62
2022/12/10 00:31:26;;;;;;;0.25;0.25;;;2.00;99.90;;;;;;5031365;28;20045;-62
2022/12/10 00:33:54;;;;;;;20.95;2.08;;;2.00;99.90;;;;;;5031251;28;20077;-62
2022/12/10 00:36:32;;;;;;;1.10;1.10;;;2.00;99.90;;;;;;5030441;28;20073;-62
2022/12/10 00:38:58;;;;;;;2.05;1.60;;;2.00;99.90;;;;;;5029279;28;20393;-62
2022/12/10 00:41:24;;;;;;;2.08;0.98;;;2.00;99.90;;;;;;5031867;28;20126;-62
2022/12/10 00:43:50;;;;;;;1.25;1.23;;;2.00;99.90;;;;;;5031195;28;20046;-62
2022/12/10 00:46:17;;;;;;;2.08;1.90;;;2.00;99.90;;;;;;5032246;28;20112;-62
2022/12/10 00:48:44;;;;;;;1.65;1.63;;;2.00;99.90;;;;;;5029997;28;20400;-62
2022/12/10 00:51:15;;;;;;;5.20;3.80;;;2.00;99.90;;;;;;5031191;28;20034;-62
2022/12/10 00:53:42;;;;;;;2.00;1.85;;;2.00;99.90;;;;;;5031890;28;20041;-62
2022/12/10 00:56:09;;;;;;;1.60;1.50;;;2.10;99.90;;;;;;5030018;28;20093;-62
2022/12/10 00:58:37;;;;;;;3.15;1.30;;;2.00;99.90;;;;;;5031050;28;20103;-62
2022/12/10 01:01:21;;;;;;;0.98;0.98;;;2.10;99.90;;;;;;5031985;28;20053;-62
2022/12/10 01:03:49;;;;;;;2.33;1.35;;;2.00;99.90;;;;;;5031025;28;20045;-62
2022/12/10 01:06:24;;;;;;;0.55;0.55;;;2.10;99.90;;;;;;5028702;28;20054;-62
2022/12/10 01:08:51;;;;;;;1.75;1.65;;;2.10;99.90;;;;;;5031706;28;20125;-62
2022/12/10 01:11:19;;;;;;;1.80;1.70;;;2.00;99.90;;;;;;5031901;28;20137;-62
2022/12/10 01:13:46;;;;;;;1.95;0.90;;;2.00;99.90;;;;;;5028147;28;20041;-62
2022/12/10 01:16:14;;;;;;;6.63;2.50;;;2.00;99.90;;;;;;5031371;28;20064;-62
2022/12/10 01:18:40;;;;;;;1.75;1.65;;;2.00;99.90;;;;;;5029887;28;20091;-62
2022/12/10 01:21:14;;;;;;;2.63;1.23;;;2.00;99.90;;;;;;5029360;28;20140;-62
2022/12/10 01:23:41;;;;;;;2.60;2.40;;;2.00;99.90;;;;;;5030903;28;20125;-62
2022/12/10 01:26:10;;;;;;;0.40;0.40;;;2.00;99.90;;;;;;5030235;28;20842;-62
2022/12/10 01:28:37;;;;;;;0.95;0.95;;;2.00;99.90;;;;;;5028995;28;20603;-62
2022/12/10 01:31:08;;;;;;;0.95;0.95;;;2.00;99.90;;;;;;5030677;28;20041;-62
2022/12/10 01:33:35;;;;;;;1.85;1.75;;;2.00;99.90;;;;;;5028142;28;20048;-62
2022/12/10 01:36:10;;;;;;;1.77;1.67;;;2.00;99.90;;;;;;5029197;28;20041;-62
2022/12/10 01:38:36;;;;;;;4.07;1.80;;;2.00;99.90;;;;;;5030941;28;20102;-62
2022/12/10 01:41:02;;;;;;;1.58;1.48;;;1.90;99.90;;;;;;5030203;28;20077;-62
2022/12/10 01:43:47;;;;;;;1.40;1.25;;;1.90;99.90;;;;;;5031251;28;20073;-62
2022/12/10 01:46:13;;;;;;;3.53;3.33;;;2.00;99.90;;;;;;5030760;28;20133;-62
2022/12/10 01:48:38;;;;;;;1.00;0.82;;;1.90;99.90;;;;;;5028179;28;20121;-62
2022/12/10 01:51:04;;;;;;;0.63;0.63;;;1.90;99.90;;;;;;5029656;28;20429;-63
2022/12/10 01:53:30;;;;;;;3.60;3.40;;;1.90;99.90;;;;;;5030554;28;20053;-62
2022/12/10 01:55:56;;;;;;;0.30;0.30;;;1.90;99.90;;;;;;5029858;28;20049;-62
2022/12/10 01:58:22;;;;;;;1.08;0.93;;;2.00;99.90;;;;;;5029122;28;20493;-62
2022/12/10 02:01:07;;;;;;;2.33;2.15;;;1.90;99.90;;;;;;5030336;28;20049;-62
2022/12/10 02:03:55;;;;;;;12.35;1.98;;;1.90;99.90;;;;;;5030894;28;20148;-62
2022/12/10 02:06:45;;;;;;;1.70;1.60;;;1.90;99.90;;;;;;5029086;28;20081;-62
2022/12/10 02:09:34;;;;;;;0.77;0.77;;;1.80;99.90;;;;;;5030309;28;20046;-62
2022/12/10 02:12:05;;;;;;;1.27;1.17;;;1.80;99.90;;;;;;5030351;28;20477;-62
2022/12/10 02:14:41;;;;;;;1.00;1.00;;;1.70;99.90;;;;;;5028067;28;20049;-62
2022/12/10 02:17:18;;;;;;;3.00;1.17;;;1.70;99.90;;;;;;5024160;28;20390;-62
2022/12/10 02:19:55;;;;;;;0.45;0.45;;;1.70;99.90;;;;;;5010654;28;20077;-62
2022/12/10 02:22:24;;;;;;;1.15;1.15;;;1.70;99.90;;;;;;5022142;28;20041;-62
2022/12/10 02:24:52;;;;;;;0.43;0.43;;;1.70;99.90;;;;;;5028424;28;20477;-62
2022/12/10 02:27:48;;;;;;;6.50;2.28;;;1.60;99.90;;;;;;5030800;28;20135;-62
2022/12/10 02:30:14;;;;;;;6.50;1.48;;;1.60;99.90;;;;;;5032301;28;20077;-62
2022/12/10 02:32:42;;;;;;;3.05;1.75;;;1.60;99.90;;;;;;5029228;28;20579;-62
2022/12/10 02:35:19;;;;;;;2.10;1.92;;;1.60;99.90;;;;;;5028837;28;20096;-62
2022/12/10 02:37:57;;;;;;;0.73;0.73;;;1.60;99.90;;;;;;5028956;28;20512;-62
2022/12/10 02:40:29;;;;;;;0.73;0.73;;;1.60;99.90;;;;;;5030452;28;20086;-62
2022/12/10 02:42:55;;;;;;;0.80;0.80;;;1.50;99.90;;;;;;5028360;28;20041;-62
2022/12/10 02:45:24;;;;;;;0.60;0.60;;;1.50;99.90;;;;;;5029272;28;20064;-62
2022/12/10 02:47:53;;;;;;;0.43;0.43;;;1.50;99.90;;;;;;5029976;28;20046;-62
2022/12/10 02:50:21;;;;;;;4.07;3.70;;;1.50;99.90;;;;;;5030493;28;20041;-62
2022/12/10 02:52:46;;;;;;;1.92;1.83;;;1.40;99.90;;;;;;5026680;28;20053;-62
2022/12/10 02:55:13;;;;;;;1.95;1.85;;;1.40;99.90;;;;;;5030319;28;20528;-62
2022/12/10 02:57:57;;;;;;;2.20;2.10;;;1.50;99.90;;;;;;5028027;28;20046;-62
2022/12/10 03:00:24;;;;;;;2.95;1.23;;;1.50;99.90;;;;;;5029829;28;20052;-62
2022/12/10 03:03:05;;;;;;;1.38;1.33;;;1.50;99.90;;;;;;5029966;28;20049;-62
2022/12/10 03:05:58;;;;;;;4.25;3.10;;;1.50;99.90;;;;;;5027583;28;20052;-62
2022/12/10 03:08:42;;;;;;;7.20;1.23;;;1.40;99.90;;;;;;5029979;28;20125;-62
2022/12/10 03:11:17;;;;;;;1.95;1.85;;;1.40;99.90;;;;;;5030033;28;20072;-62
2022/12/10 03:13:53;;;;;;;0.40;0.40;;;1.40;99.90;;;;;;5027397;28;20169;-62
2022/12/10 03:16:20;;;;;;;0.77;0.77;;;1.40;99.90;;;;;;5029783;28;20050;-62
2022/12/10 03:18:51;;;;;;;1.55;1.02;;;1.50;99.90;;;;;;5028830;28;20052;-62
2022/12/10 03:21:18;;;;;;;2.25;1.98;;;1.50;99.90;;;;;;5029191;28;20065;-62
2022/12/10 03:23:47;;;;;;;1.00;1.00;;;1.50;99.90;;;;;;5027276;28;20056;-62
2022/12/10 03:26:14;;;;;;;0.65;0.65;;;1.50;99.90;;;;;;5027381;28;20038;-62
2022/12/10 03:28:51;;;;;;;1.75;1.65;;;1.40;99.90;;;;;;5031899;28;20046;-62
2022/12/10 03:31:18;;;;;;;1.80;1.00;;;1.50;99.90;;;;;;5031714;28;20485;-62
2022/12/10 03:33:46;;;;;;;6.22;3.20;;;1.50;99.90;;;;;;5032074;28;20055;-62
2022/12/10 03:36:13;;;;;;;0.55;0.55;;;1.50;99.90;;;;;;5033416;28;20485;-62
2022/12/10 03:38:39;;;;;;;0.65;0.65;;;1.50;99.90;;;;;;5031204;28;20045;-62
2022/12/10 03:41:05;;;;;;;2.47;2.38;;;1.50;99.90;;;;;;5029428;28;20133;-62
2022/12/10 03:43:31;;;;;;;0.68;0.68;;;1.50;99.90;;;;;;5031244;28;20144;-63
2022/12/10 03:45:56;;;;;;;2.47;1.70;;;1.50;99.90;;;;;;5033183;28;20052;-62
2022/12/10 03:48:22;;;;;;;3.33;1.58;;;1.50;99.90;;;;;;5031311;28;20048;-62
2022/12/10 03:50:48;;;;;;;0.30;0.30;;;1.50;99.90;;;;;;5030695;28;20489;-62
2022/12/10 03:53:13;;;;;;;1.33;1.33;;;1.60;99.90;;;;;;5033337;28;20041;-62
2022/12/10 03:55:39;;;;;;;1.00;1.00;;;1.60;99.90;;;;;;5030081;28;20115;-62
2022/12/10 03:58:05;;;;;;;0.40;0.40;;;1.60;99.90;;;;;;5033052;28;20037;-62
2022/12/10 04:00:30;;;;;;;0.45;0.45;;;1.60;99.90;;;;;;5031080;28;20045;-62
2022/12/10 04:02:56;;;;;;;2.40;2.25;;;1.70;99.90;;;;;;5031766;28;20131;-62
2022/12/10 04:05:22;;;;;;;1.15;1.15;;;1.70;99.90;;;;;;5032855;28;20421;-62
2022/12/10 04:07:47;;;;;;;0.77;0.77;;;1.70;99.90;;;;;;5030264;28;20127;-62
2022/12/10 04:10:13;;;;;;;5.63;2.70;;;1.70;99.90;;;;;;5032938;28;20392;-62
2022/12/10 04:12:39;;;;;;;3.00;1.15;;;1.70;99.90;;;;;;5032682;28;20045;-62
2022/12/10 04:17:49;;;;;;;1.75;1.35;;;1.70;99.90;;;;;;5029671;28;20139;-62
2022/12/10 04:28:42;;;;;;;0.55;0.55;;;1.80;99.90;;;;;;5032442;28;20049;-62
2022/12/10 04:31:08;;;;;;;0.65;0.65;;;1.80;99.90;;;;;;5029484;28;20489;-62
2022/12/10 04:33:33;;;;;;;0.28;0.28;;;1.70;99.90;;;;;;5032344;28;20099;-62
2022/12/10 04:35:59;;;;;;;2.03;1.92;;;1.80;99.90;;;;;;5031466;28;20496;-62
2022/12/10 04:38:24;;;;;;;1.30;1.27;;;1.70;99.90;;;;;;5032379;28;20041;-62
2022/12/10 04:40:50;;;;;;;0.82;0.82;;;1.70;99.90;;;;;;5029132;28;20037;-62
2022/12/10 04:43:15;;;;;;;0.63;0.60;;;1.70;99.90;;;;;;5029829;28;20045;-62
2022/12/10 04:45:41;;;;;;;0.17;0.17;;;1.70;99.90;;;;;;5031358;28;20053;-62
2022/12/10 04:48:06;;;;;;;1.38;1.38;;;1.60;99.90;;;;;;5031348;28;20477;-62
2022/12/10 04:50:32;;;;;;;0.70;0.70;;;1.60;99.90;;;;;;5016431;28;20049;-62
2022/12/10 04:52:58;;;;;;;0.20;0.20;;;1.60;99.90;;;;;;5032177;28;20042;-62
2022/12/10 04:55:23;;;;;;;0.68;0.68;;;1.60;99.90;;;;;;5031696;28;20056;-62
2022/12/10 04:57:49;;;;;;;0.63;0.63;;;1.60;99.90;;;;;;5031229;28;20053;-62
2022/12/10 05:00:15;;;;;;;0.95;0.73;;;1.60;99.90;;;;;;5030103;28;20499;-62
2022/12/10 05:02:40;;;;;;;0.30;0.30;;;1.60;99.90;;;;;;5031696;28;20125;-62
2022/12/10 05:05:06;;;;;;;2.28;2.15;;;1.60;99.90;;;;;;5030820;28;20041;-62
2022/12/10 05:07:32;;;;;;;1.45;1.35;;;1.60;99.90;;;;;;5029522;28;20124;-62
2022/12/10 05:09:58;;;;;;;4.57;1.55;;;1.50;99.90;;;;;;5031509;28;20053;-62
2022/12/10 05:12:23;;;;;;;4.38;2.95;;;1.50;99.90;;;;;;5030606;28;20497;-62
2022/12/10 05:14:49;;;;;;;1.02;1.02;;;1.50;99.90;;;;;;5029162;28;20045;-62
2022/12/10 05:17:14;;;;;;;1.85;0.82;;;1.60;99.90;;;;;;5030962;28;20045;-62
2022/12/10 05:19:40;;;;;;;0.25;0.25;;;1.50;99.90;;;;;;5029242;28;20045;-62
2022/12/10 05:24:51;;;;;;;0.32;0.32;;;1.60;99.90;;;;;;5030872;28;20542;-62
2022/12/10 05:27:17;;;;;;;0.20;0.20;;;1.50;99.90;;;;;;5031060;28;20041;-62
2022/12/10 05:29:42;;;;;;;0.32;0.32;;;1.50;99.90;;;;;;5029104;28;20037;-62
2022/12/10 05:32:08;;;;;;;0.30;0.30;;;1.50;99.90;;;;;;5030927;28;20086;-62
2022/12/10 05:34:33;;;;;;;3.13;1.55;;;1.50;99.90;;;;;;5031365;28;20497;-62
2022/12/10 05:36:59;;;;;;;0.38;0.38;;;1.50;99.90;;;;;;5029584;28;20091;-62
2022/12/10 05:39:25;;;;;;;3.15;1.90;;;1.50;99.90;;;;;;5030619;28;20029;-62
2022/12/10 05:41:50;;;;;;;0.32;0.32;;;1.50;99.90;;;;;;5031122;28;20048;-62
2022/12/10 05:44:16;;;;;;;3.22;2.97;;;1.50;99.90;;;;;;5029577;28;20068;-62
2022/12/10 05:46:41;;;;;;;4.95;3.45;;;1.50;99.90;;;;;;5030120;28;20128;-62
2022/12/10 05:49:07;;;;;;;1.65;1.55;;;1.50;99.90;;;;;;5028113;28;20038;-62
2022/12/10 05:51:35;;;;;;;0.50;0.50;;;1.40;99.90;;;;;;5030543;28;20037;-62
2022/12/10 05:54:03;;;;;;;4.85;2.65;;;1.50;99.90;;;;;;5030477;28;20049;-62
2022/12/10 05:56:29;;;;;;;0.88;0.88;;;1.50;99.90;;;;;;5028986;28;20400;-62
2022/12/10 05:58:58;;;;;;;0.50;0.50;;;1.50;99.90;;;;;;5031307;28;20045;-62
2022/12/10 06:01:27;;;;;;;1.00;1.00;;;1.50;99.90;;;;;;5028308;28;20037;-62
2022/12/10 06:03:52;;;;;;;1.35;1.25;;;1.50;99.90;;;;;;5030671;28;20477;-62
2022/12/10 06:06:27;;;;;;;1.20;1.10;;;1.50;99.90;;;;;;5030744;28;20064;-62
2022/12/10 06:08:53;;;;;;;1.98;1.75;;;1.60;99.90;;;;;;5030249;28;20132;-62
2022/12/10 06:11:19;;;;;;;0.30;0.30;;;1.50;99.90;;;;;;5028871;28;20441;-62
2022/12/10 06:13:44;;;;;;;0.57;0.57;;;1.60;99.90;;;;;;5030760;28;20038;-62
2022/12/10 06:16:11;;;;;;;0.22;0.22;;;1.50;99.90;;;;;;5028429;28;20547;-62
2022/12/10 06:18:37;;;;;;;0.40;0.40;;;1.50;99.90;;;;;;5029917;28;20054;-62
2022/12/10 06:21:05;;;;;;;0.50;0.50;;;1.50;99.90;;;;;;5027930;28;20049;-62
2022/12/10 06:23:30;;;;;;;0.40;0.40;;;1.50;99.90;;;;;;5029942;28;20071;-62
2022/12/10 06:25:56;;;;;;;0.20;0.20;;;1.50;99.90;;;;;;5030133;28;20045;-62
2022/12/10 06:28:22;;;;;;;1.80;1.27;;;1.50;99.90;;;;;;5030206;28;20063;-62
2022/12/10 06:30:47;;;;;;;0.70;0.70;;;1.60;99.90;;;;;;5026947;28;20108;-63
2022/12/10 06:33:13;;;;;;;0.22;0.22;;;1.50;99.90;;;;;;5029340;28;20049;-63
2022/12/10 06:35:38;;;;;;;1.75;1.65;;;1.60;99.90;;;;;;5029308;28;20493;-62
2022/12/10 06:38:04;;;;;;;0.20;0.20;;;1.60;99.90;;;;;;5028360;28;20041;-62
2022/12/10 06:40:29;;;;;;;0.28;0.28;;;1.60;99.90;;;;;;5021294;28;20405;-62
2022/12/10 06:42:55;;;;;;;0.57;0.57;;;1.60;99.90;;;;;;5029414;28;20085;-62
2022/12/10 06:45:20;;;;;;;0.30;0.30;;;1.60;99.90;;;;;;5030327;28;20433;-62
2022/12/10 06:47:46;;;;;;;1.35;1.17;;;1.60;99.90;;;;;;5027195;28;20077;-62
2022/12/10 06:50:12;;;;;;;0.60;0.60;;;1.60;99.90;;;;;;5029044;28;20492;-62
2022/12/10 06:52:37;;;;;;;1.27;1.17;;;1.60;99.90;;;;;;5028172;28;20378;-62
2022/12/10 06:55:03;;;;;;;0.45;0.45;;;1.60;99.90;;;;;;5029711;28;20037;-62
2022/12/10 06:57:29;;;;;;;3.85;1.63;;;1.60;99.90;;;;;;5027517;28;20058;-62
2022/12/10 06:59:54;;;;;;;0.30;0.30;;;1.60;99.90;;;;;;5030276;28;20042;-62
2022/12/10 07:02:20;;;;;;;1.23;1.17;;;1.60;99.90;;;;;;5030930;28;20064;-62
2022/12/10 07:04:45;;;;;;;0.43;0.43;;;1.70;99.90;;;;;;5031579;28;20539;-62
2022/12/10 07:07:11;;;;;;;1.75;1.50;;;1.60;99.90;;;;;;5033941;28;20128;-62
2022/12/10 07:09:37;;;;;;;1.70;0.95;;;1.60;99.90;;;;;;5034339;28;20604;-62
2022/12/10 07:12:03;;;;;;;2.78;2.58;;;1.60;99.90;;;;;;5031495;28;20045;-62
2022/12/10 07:14:29;;;;;;;0.60;0.60;;;1.70;99.90;;;;;;5034091;28;20111;-62
2022/12/10 07:16:55;;;;;;;0.10;0.10;;;1.60;99.90;;;;;;5032340;28;20102;-62
2022/12/10 07:19:20;;;;;;;1.08;1.05;;;1.60;99.90;;;;;;5032945;28;20067;-62
2022/12/10 07:21:46;;;;;;;5.68;1.38;;;1.60;99.90;;;;;;5031453;28;20150;-62
2022/12/10 07:24:15;;;;;;;0.50;0.50;;;1.60;99.90;;;;;;5031898;28;20045;-62
2022/12/10 07:26:43;;;;;;;0.55;0.55;;;1.60;99.90;;;;;;5032686;28;20434;-62
2022/12/10 07:29:13;;;;;;;0.68;0.68;;;1.60;99.90;;;;;;5028479;28;20049;-62
2022/12/10 07:31:39;;;;;;;0.20;0.20;;;1.60;99.90;;;;;;5015928;28;20046;-61
2022/12/10 07:34:05;;;;;;;0.30;0.30;;;1.60;99.90;;;;;;5013530;28;20053;-62
2022/12/10 07:36:30;;;;;;;0.10;0.10;;;1.60;99.90;;;;;;5022347;28;20398;-62
2022/12/10 07:38:56;;;;;;;0.40;0.40;;;1.60;99.90;;;;;;5030868;28;20053;-62
2022/12/10 07:41:23;;;;;;;1.08;1.08;;;1.60;99.90;;;;;;5031647;28;20045;-62
2022/12/10 07:43:49;;;;;;;0.40;0.40;;;1.60;99.90;;;;;;5033053;28;20044;-62
2022/12/10 07:46:16;;;;;;;3.88;1.98;;;1.60;99.90;;;;;;5032889;28;20041;-62
2022/12/10 07:48:43;;;;;;;0.17;0.17;;;1.60;99.90;;;;;;5030623;28;20048;-62
2022/12/10 07:51:10;;;;;;;0.63;0.63;;;1.60;99.90;;;;;;5048279;28;20077;-62
2022/12/10 07:53:35;;;;;;;3.10;2.50;;;1.60;99.90;;;;;;5032250;28;20045;-62
2022/12/10 07:56:01;;;;;;;0.10;0.10;;;1.70;99.90;;;;;;5030632;28;20128;-62
2022/12/10 07:58:27;;;;;;;0.50;0.50;;;1.70;99.90;;;;;;5031775;28;20041;-63
2022/12/10 08:00:53;;;;;;;0.20;0.20;;;1.70;99.90;;;;;;5031238;28;20056;-63
2022/12/10 08:03:18;;;;;;;9.05;3.67;;;1.70;99.90;;;;;;5033151;28;20469;-62
2022/12/10 08:05:44;;;;;;;0.40;0.40;;;1.70;99.90;;;;;;5031545;28;20100;-62
2022/12/10 08:08:10;;;;;;;2.90;2.67;;;1.70;99.90;;;;;;5030179;28;20056;-62
2022/12/10 08:10:37;;;;;;;0.75;0.75;;;1.70;99.90;;;;;;5032564;28;20050;-62
2022/12/10 08:13:03;;;;;;;0.65;0.65;;;1.70;99.90;;;;;;5030623;28;20910;-63
2022/12/10 08:15:29;;;;;;;0.63;0.63;;;1.70;99.90;;;;;;5031751;28;20120;-62
2022/12/10 08:17:55;;;;;;;6.88;2.47;;;1.70;99.90;;;;;;5029648;28;20132;-62
2022/12/10 08:20:21;;;;;;;1.42;1.40;;;1.70;99.90;;;;;;5032167;28;20056;-62
2022/12/10 08:22:47;;;;;;;0.80;0.73;;;1.70;99.90;;;;;;5031343;28;20045;-62
2022/12/10 08:25:12;;;;;;;0.40;0.40;;;1.70;99.90;;;;;;5030506;28;20049;-62
2022/12/10 08:27:38;;;;;;;0.30;0.30;;;1.80;99.90;;;;;;5032195;28;20049;-62
2022/12/10 08:30:04;;;;;;;0.20;0.20;;;1.80;99.90;;;;;;5031702;28;20037;-62
2022/12/10 08:32:30;;;;;;;1.67;1.58;;;1.80;99.90;;;;;;5030470;28;20048;-62
2022/12/10 08:34:55;;;;;;;0.47;0.47;;;1.80;99.90;;;;;;5032134;28;20049;-62
2022/12/10 08:37:21;;;;;;;0.57;0.57;;;1.80;99.90;;;;;;5029790;28;20143;-63
2022/12/10 08:39:47;;;;;;;1.35;0.98;;;1.80;99.90;;;;;;5031731;28;20044;-62
2022/12/10 08:42:13;;;;;;;0.30;0.30;;;1.80;99.90;;;;;;5031527;28;20527;-63
2022/12/10 08:44:38;;;;;;;0.82;0.82;;;1.80;99.90;;;;;;5030021;28;20564;-62
2022/12/10 08:47:04;;;;;;;1.38;1.30;;;1.80;99.90;;;;;;5030775;28;20045;-62
2022/12/10 08:49:30;;;;;;;0.50;0.50;;;1.80;99.90;;;;;;5029623;28;20052;-62
2022/12/10 08:51:56;;;;;;;0.22;0.22;;;1.80;99.90;;;;;;5031640;28;20382;-62
2022/12/10 08:54:21;;;;;;;1.52;1.42;;;1.80;99.90;;;;;;5032254;28;20037;-63
2022/12/10 08:56:47;;;;;;;0.40;0.40;;;1.80;99.90;;;;;;5028525;28;20572;-63
2022/12/10 08:59:13;;;;;;;0.30;0.30;;;1.80;99.90;;;;;;5032029;28;20358;-62
2022/12/10 09:01:38;;;;;;;0.30;0.30;;;1.80;99.90;;;;;;5029538;28;20045;-63
2022/12/10 09:04:04;;;;;;;0.55;0.55;;;1.90;99.90;;;;;;5029371;28;20129;-62
2022/12/10 09:06:30;;;;;;;0.10;0.10;;;1.80;99.90;;;;;;5031234;28;20144;-62
2022/12/10 09:08:56;;;;;;;1.10;1.05;;;1.90;99.90;;;;;;5031607;28;20045;-62
2022/12/10 09:11:25;;;;;;;1.52;1.50;;;1.80;99.90;;;;;;5028445;28;20794;-62
2022/12/10 09:13:51;;;;;;;0.98;0.98;;;1.80;99.90;;;;;;5031426;28;20092;-63
2022/12/10 09:16:17;;;;;;;6.47;2.60;;;1.90;99.90;;;;;;5029911;28;20068;-62
2022/12/10 09:18:43;;;;;;;0.88;0.88;;;1.90;99.90;;;;;;5028989;28;20037;-63
2022/12/10 09:21:18;;;;;;;1.23;1.10;;;1.90;99.90;;;;;;5029334;28;20045;-63
2022/12/10 09:23:44;;;;;;;3.30;1.75;;;2.00;99.90;;;;;;5030950;28;20037;-63
2022/12/10 09:26:13;;;;;;;1.90;1.83;;;2.00;99.90;;;;;;5030028;28;20374;-63
2022/12/10 09:28:39;;;;;;;2.20;2.10;;;2.00;99.90;;;;;;5031374;28;20099;-62
2022/12/10 09:31:06;;;;;;;0.38;0.38;;;2.00;99.90;;;;;;5029259;28;20037;-63
2022/12/10 09:33:32;;;;;;;1.13;1.13;;;2.10;99.90;;;;;;5030502;28;20107;-63
2022/12/10 09:35:58;;;;;;;0.75;0.75;;;2.10;99.90;;;;;;5028754;28;20049;-63
2022/12/10 09:38:24;;;;;;;0.65;0.65;;;2.10;99.90;;;;;;5028612;28;20038;-62
2022/12/10 09:41:02;;;;;;;0.68;0.68;;;2.10;99.90;;;;;;5030743;28;20053;-63
2022/12/10 09:44:00;;;;;;;1.88;1.10;;;2.10;99.90;;;;;;5031034;28;20041;-63
2022/12/10 09:46:38;;;;;;;2.30;1.95;;;2.10;99.90;;;;;;5008663;28;20408;-63
2022/12/10 09:49:28;;;;;;;0.32;0.32;;;2.10;99.90;;;;;;5010988;28;20054;-62
2022/12/10 09:51:57;;;;;;;5.20;1.20;;;2.20;99.90;;;;;;5011379;28;20054;-63
2022/12/10 09:54:33;;;;;;;1.00;1.00;;;2.20;99.90;;;;;;5008769;28;20421;-62
2022/12/10 09:57:00;;;;;;;0.63;0.63;;;2.20;99.90;;;;;;5010790;28;20049;-62
2022/12/10 09:59:34;;;;;;;0.32;0.32;;;2.20;99.90;;;;;;5010441;28;20141;-63
2022/12/10 10:02:24;;;;;;;0.35;0.35;;;2.30;99.90;;;;;;5010167;28;20081;-63
2022/12/10 10:04:51;;;;;;;0.28;0.28;;;2.30;99.90;;;;;;5010989;28;20065;-63
2022/12/10 10:07:26;;;;;;;0.40;0.40;;;2.30;99.90;;;;;;5008714;28;20046;-63
2022/12/10 10:09:57;;;;;;;1.65;1.55;;;2.30;99.90;;;;;;5010458;28;20042;-63
2022/12/10 10:12:23;;;;;;;0.30;0.30;;;2.20;99.90;;;;;;5014609;28;20065;-63
2022/12/10 10:14:49;;;;;;;0.38;0.38;;;2.30;99.90;;;;;;5008208;28;20042;-62
2022/12/10 10:17:22;;;;;;;0.43;0.43;;;2.20;99.90;;;;;;5010749;28;20046;-63
2022/12/10 10:19:49;;;;;;;;;;;2.20;99.90;;;;;;5011241;28;20397;-63
2022/12/10 10:22:15;;;;;;;0.40;0.40;;;2.10;99.90;;;;;;5010502;28;19921;-63
2022/12/10 10:24:43;;;;;;;0.40;0.40;;;2.10;99.90;;;;;;5008538;28;20046;-63
2022/12/10 10:27:14;;;;;;;1.45;1.08;;;2.10;99.90;;;;;;5010736;28;20042;-63
2022/12/10 10:29:40;;;;;;;0.20;0.20;;;2.10;99.90;;;;;;5009666;28;20061;-63
2022/12/10 10:32:18;;;;;;;0.85;0.85;;;2.10;99.90;;;;;;5009395;28;20042;-63
2022/12/10 10:34:45;;;;;;;0.10;0.10;;;2.10;99.90;;;;;;5009249;28;20093;-63
2022/12/10 10:37:40;;;;;;;0.77;0.77;;;2.10;99.90;;;;;;5024886;28;20084;-63
2022/12/10 10:40:06;;;;;;;0.63;0.63;;;2.10;99.90;;;;;;5004547;28;20470;-63
2022/12/10 10:42:39;;;;;;;2.20;1.75;;;2.10;99.90;;;;;;5012283;28;20393;-62
2022/12/10 10:45:36;;;;;;;1.33;1.23;;;2.10;99.90;;;;;;5024909;28;20103;-63
2022/12/10 10:48:14;;;;;;;3.83;1.40;;;2.10;99.90;;;;;;5032815;28;20124;-62
2022/12/10 10:50:42;;;;;;;1.17;1.17;;;2.20;99.90;;;;;;5031775;28;20046;-63
2022/12/10 10:53:29;;;;;;;5.78;3.10;;;2.20;99.90;;;;;;5034360;28;20088;-63
2022/12/10 10:56:25;;;;;;;0.52;0.52;;;2.20;99.90;;;;;;5030621;28;20057;-63
2022/12/10 10:58:54;;;;;;;0.88;0.88;;;2.30;99.90;;;;;;5021082;28;20088;-62
2022/12/10 11:01:20;;;;;;;0.40;0.40;;;2.30;99.90;;;;;;5034453;28;20049;-63
2022/12/10 11:03:58;;;;;;;0.30;0.30;;;2.30;99.90;;;;;;5030810;28;20555;-63
2022/12/10 11:06:24;;;;;;;0.15;0.15;;;2.30;99.90;;;;;;5031548;28;20056;-63
2022/12/10 11:08:53;;;;;;;2.13;1.67;;;2.20;99.90;;;;;;5033596;28;20596;-63
2022/12/10 11:11:33;;;;;;;1.35;0.90;;;2.10;99.90;;;;;;5031680;28;20095;-63
2022/12/10 11:14:21;;;;;;;2.85;2.58;;;2.20;99.90;;;;;;5033575;28;20477;-62
2022/12/10 11:16:47;;;;;;;1.10;1.10;;;2.10;99.90;;;;;;5012778;28;20045;-63
2022/12/10 11:19:22;;;;;;;3.83;2.95;;;2.10;99.90;;;;;;5020785;28;20555;-62
2022/12/10 11:21:48;;;;;;;0.60;0.60;;;2.10;99.90;;;;;;5033592;28;20045;-63
2022/12/10 11:24:18;;;;;;;0.88;0.88;;;2.10;99.90;;;;;;5045763;28;20092;-63
2022/12/10 11:26:55;;;;;;;1.08;1.08;;;2.20;99.90;;;;;;5033054;28;20045;-63
2022/12/10 11:29:32;;;;;;;3.40;2.03;;;2.20;99.90;;;;;;5031673;28;20127;-63
2022/12/10 11:32:03;;;;;;;2.20;2.03;;;2.10;99.90;;;;;;5032646;28;20046;-63
2022/12/10 11:34:35;;;;;;;1.50;1.40;;;2.20;99.90;;;;;;5033530;28;20092;-63
2022/12/10 11:37:13;;;;;;;0.50;0.50;;;2.20;99.90;;;;;;5030715;28;20088;-63
2022/12/10 11:40:10;;;;;;;2.13;1.95;;;2.20;99.90;;;;;;5032293;28;20049;-62
2022/12/10 11:42:51;;;;;;;0.20;0.20;;;2.20;99.90;;;;;;5033460;28;20045;-63
2022/12/10 11:45:46;;;;;;;0.52;0.52;;;2.20;99.90;;;;;;5030919;28;20061;-62
2022/12/10 11:48:20;;;;;;;0.88;0.88;;;2.20;99.90;;;;;;5032897;28;20504;-63
2022/12/10 11:50:49;;;;;;;0.17;0.17;;;2.20;99.90;;;;;;5032055;28;20132;-63
2022/12/10 11:53:56;;;;;;;0.55;0.55;;;2.20;99.90;;;;;;5033318;28;20033;-62
2022/12/10 11:56:26;;;;;;;1.00;1.00;;;2.20;99.90;;;;;;5033306;28;20045;-63
2022/12/10 11:59:01;;;;;;;1.38;1.27;;;2.20;99.90;;;;;;5033373;28;20037;-62
2022/12/10 12:01:39;;;;;;;0.40;0.40;;;2.20;99.90;;;;;;5031394;28;20057;-63
2022/12/10 12:04:39;;;;;;;0.40;0.40;;;2.20;99.90;;;;;;5032379;28;20099;-63
2022/12/10 12:07:33;;;;;;;0.70;0.70;;;2.20;99.90;;;;;;5028724;28;20041;-62
2022/12/10 12:10:24;;;;;;;1.30;1.25;;;2.30;99.90;;;;;;5032835;28;20583;-63
2022/12/10 12:13:04;;;;;;;6.97;2.47;;;2.30;99.90;;;;;;5029718;28;20422;-63
2022/12/10 12:15:42;;;;;;;0.47;0.47;;;2.30;99.90;;;;;;5032810;28;20436;-63
2022/12/10 12:18:23;;;;;;;0.63;0.63;;;2.30;99.90;;;;;;5031523;28;20088;-63
2022/12/10 12:20:54;;;;;;;2.20;2.10;;;2.40;99.90;;;;;;5030625;28;20060;-63
2022/12/10 12:23:33;;;;;;;0.40;0.40;;;2.30;99.90;;;;;;5032782;28;20041;-63
2022/12/10 12:26:05;;;;;;;0.63;0.63;;;2.30;99.90;;;;;;5030443;28;20790;-62
2022/12/10 12:28:36;;;;;;;1.50;1.40;;;2.40;99.90;;;;;;5030074;28;20132;-63
2022/12/10 12:31:13;;;;;;;0.47;0.47;;;2.40;99.90;;;;;;5020060;28;20064;-63
2022/12/10 12:33:49;;;;;;;0.30;0.30;;;2.40;99.90;;;;;;5022107;28;20510;-62
2022/12/10 12:36:22;;;;;;;2.97;2.75;;;2.30;99.90;;;;;;5042728;28;20064;-63
2022/12/10 12:39:13;;;;;;;1.25;1.25;;;2.30;99.90;;;;;;5029139;28;20117;-63
2022/12/10 12:41:56;;;;;;;2.65;2.38;;;2.30;99.90;;;;;;5015471;28;20072;-63
2022/12/10 12:44:33;;;;;;;0.20;0.20;;;2.30;99.90;;;;;;5024521;28;20054;-63
2022/12/10 12:47:09;;;;;;;1.15;1.15;;;2.30;99.90;;;;;;5031369;28;20620;-63
2022/12/10 12:49:39;;;;;;;0.20;0.20;;;2.40;99.90;;;;;;5030108;28;20140;-62
2022/12/10 12:52:37;;;;;;;3.20;3.00;;;2.40;99.90;;;;;;5026684;28;20052;-62
2022/12/10 12:55:27;;;;;;;0.60;0.60;;;2.30;99.90;;;;;;5016769;28;20057;-63
2022/12/10 12:58:16;;;;;;;0.17;0.17;;;2.40;99.90;;;;;;5001044;28;20054;-63
2022/12/10 13:00:46;;;;;;;1.17;1.17;;;2.30;99.90;;;;;;5027818;28;20049;-63
2022/12/10 13:03:29;;;;;;;0.60;0.60;;;2.40;99.90;;;;;;5031140;28;20123;-63
2022/12/10 13:05:55;;;;;;;1.08;1.08;;;2.40;99.90;;;;;;5029332;28;20552;-63
2022/12/10 13:08:20;;;;;;;1.10;1.10;;;2.30;99.90;;;;;;5028045;28;20183;-63
2022/12/10 13:11:10;;;;;;;0.82;0.82;;;2.40;99.90;;;;;;5030505;28;20041;-63
2022/12/10 13:13:41;;;;;;;0.20;0.20;;;2.40;99.90;;;;;;5030885;28;20064;-62
2022/12/10 13:16:45;;;;;;;0.85;0.85;;;2.40;99.90;;;;;;5028308;28;20080;-63
2022/12/10 13:19:19;;;;;;;2.23;0.87;;;2.40;99.90;;;;;;5029107;28;20054;-62
2022/12/10 13:22:05;;;;;;;0.80;0.80;;;2.40;99.90;;;;;;5030006;28;20057;-63
2022/12/10 13:24:47;;;;;;;0.85;0.85;;;2.40;99.90;;;;;;5030829;28;20099;-63
2022/12/10 13:27:15;;;;;;;0.40;0.40;;;2.40;99.90;;;;;;5029519;28;20575;-63
2022/12/10 13:29:59;;;;;;;1.13;1.13;;;2.40;99.90;;;;;;5030170;28;20076;-63